sensor_id;sensor_type;location;lat;lon;timestamp;P1;durP1;ratioP1;P2;durP2;ratioP2
42478;SDS011;28110;47.080;9.476;2023-02-28T00:00:22;8.70;;;4.68;;
42478;SDS011;28110;47.080;9.476;2023-02-28T00:02:49;8.60;;;5.10;;
42478;SDS011;28110;47.080;9.476;2023-02-28T00:05:16;6.20;;;4.13;;
42478;SDS011;28110;47.080;9.476;2023-02-28T00:07:43;7.85;;;4.63;;
42478;SDS011;28110;47.080;9.476;2023-02-28T00:10:10;8.07;;;4.25;;
42478;SDS011;28110;47.080;9.476;2023-02-28T00:12:37;8.30;;;4.60;;
42478;SDS011;28110;47.080;9.476;2023-02-28T00:15:07;11.50;;;4.83;;
42478;SDS011;28110;47.080;9.476;2023-02-28T00:17:34;6.90;;;4.00;;
42478;SDS011;28110;47.080;9.476;2023-02-28T00:19:59;6.27;;;4.20;;
42478;SDS011;28110;47.080;9.476;2023-02-28T00:22:37;8.32;;;4.57;;
42478;SDS011;28110;47.080;9.476;2023-02-28T00:25:03;6.60;;;4.35;;
42478;SDS011;28110;47.080;9.476;2023-02-28T00:27:30;8.57;;;4.97;;
42478;SDS011;28110;47.080;9.476;2023-02-28T00:29:55;8.40;;;4.93;;
42478;SDS011;28110;47.080;9.476;2023-02-28T00:32:21;9.13;;;4.73;;
42478;SDS011;28110;47.080;9.476;2023-02-28T00:34:46;8.20;;;4.63;;
42478;SDS011;28110;47.080;9.476;2023-02-28T00:37:12;7.90;;;5.23;;
42478;SDS011;28110;47.080;9.476;2023-02-28T00:39:38;7.68;;;4.85;;
42478;SDS011;28110;47.080;9.476;2023-02-28T00:42:04;8.68;;;4.72;;
42478;SDS011;28110;47.080;9.476;2023-02-28T00:44:31;11.53;;;4.53;;
42478;SDS011;28110;47.080;9.476;2023-02-28T00:46:57;7.53;;;4.10;;
42478;SDS011;28110;47.080;9.476;2023-02-28T00:49:22;7.05;;;4.47;;
42478;SDS011;28110;47.080;9.476;2023-02-28T00:51:48;6.73;;;4.37;;
42478;SDS011;28110;47.080;9.476;2023-02-28T00:54:14;6.40;;;4.13;;
42478;SDS011;28110;47.080;9.476;2023-02-28T00:56:40;8.02;;;4.90;;
42478;SDS011;28110;47.080;9.476;2023-02-28T00:59:06;9.00;;;4.80;;
42478;SDS011;28110;47.080;9.476;2023-02-28T01:01:32;7.05;;;4.97;;
42478;SDS011;28110;47.080;9.476;2023-02-28T01:03:57;7.00;;;4.70;;
42478;SDS011;28110;47.080;9.476;2023-02-28T01:06:23;6.95;;;4.82;;
42478;SDS011;28110;47.080;9.476;2023-02-28T01:08:49;7.22;;;4.43;;
42478;SDS011;28110;47.080;9.476;2023-02-28T01:11:15;9.27;;;5.17;;
42478;SDS011;28110;47.080;9.476;2023-02-28T01:13:42;9.93;;;4.40;;
42478;SDS011;28110;47.080;9.476;2023-02-28T01:16:08;11.45;;;5.15;;
42478;SDS011;28110;47.080;9.476;2023-02-28T01:18:33;8.60;;;4.87;;
42478;SDS011;28110;47.080;9.476;2023-02-28T01:21:03;8.10;;;4.95;;
42478;SDS011;28110;47.080;9.476;2023-02-28T01:23:32;8.50;;;4.50;;
42478;SDS011;28110;47.080;9.476;2023-02-28T01:26:03;9.20;;;4.77;;
42478;SDS011;28110;47.080;9.476;2023-02-28T01:28:32;7.75;;;4.82;;
42478;SDS011;28110;47.080;9.476;2023-02-28T01:30:58;6.93;;;4.50;;
42478;SDS011;28110;47.080;9.476;2023-02-28T01:33:24;8.10;;;4.77;;
42478;SDS011;28110;47.080;9.476;2023-02-28T01:35:56;7.97;;;4.93;;
42478;SDS011;28110;47.080;9.476;2023-02-28T01:38:27;8.50;;;4.70;;
42478;SDS011;28110;47.080;9.476;2023-02-28T01:40:52;9.13;;;4.53;;
42478;SDS011;28110;47.080;9.476;2023-02-28T01:43:26;9.13;;;4.72;;
42478;SDS011;28110;47.080;9.476;2023-02-28T01:45:54;11.60;;;5.13;;
42478;SDS011;28110;47.080;9.476;2023-02-28T01:48:23;8.88;;;5.47;;
42478;SDS011;28110;47.080;9.476;2023-02-28T01:50:52;9.43;;;4.75;;
42478;SDS011;28110;47.080;9.476;2023-02-28T01:53:23;10.35;;;4.88;;
42478;SDS011;28110;47.080;9.476;2023-02-28T01:55:57;8.37;;;5.13;;
42478;SDS011;28110;47.080;9.476;2023-02-28T01:58:23;9.07;;;4.38;;
42478;SDS011;28110;47.080;9.476;2023-02-28T02:00:48;7.93;;;5.38;;
42478;SDS011;28110;47.080;9.476;2023-02-28T02:03:15;9.77;;;5.07;;
42478;SDS011;28110;47.080;9.476;2023-02-28T02:05:44;8.13;;;4.78;;
42478;SDS011;28110;47.080;9.476;2023-02-28T02:08:12;9.50;;;4.97;;
42478;SDS011;28110;47.080;9.476;2023-02-28T02:10:48;6.75;;;4.78;;
42478;SDS011;28110;47.080;9.476;2023-02-28T02:19:11;7.90;;;4.90;;
42478;SDS011;28110;47.080;9.476;2023-02-28T02:26:50;8.60;;;5.28;;
42478;SDS011;28110;47.080;9.476;2023-02-28T02:43:32;7.20;;;4.77;;
42478;SDS011;28110;47.080;9.476;2023-02-28T02:46:03;8.50;;;4.82;;
42478;SDS011;28110;47.080;9.476;2023-02-28T02:48:34;8.43;;;5.43;;
42478;SDS011;28110;47.080;9.476;2023-02-28T02:51:03;8.27;;;4.72;;
42478;SDS011;28110;47.080;9.476;2023-02-28T02:54:02;7.78;;;4.93;;
42478;SDS011;28110;47.080;9.476;2023-02-28T02:56:30;11.40;;;4.90;;
42478;SDS011;28110;47.080;9.476;2023-02-28T02:58:59;10.35;;;5.15;;
42478;SDS011;28110;47.080;9.476;2023-02-28T03:01:32;8.30;;;4.88;;
42478;SDS011;28110;47.080;9.476;2023-02-28T03:04:10;8.93;;;5.18;;
42478;SDS011;28110;47.080;9.476;2023-02-28T03:06:40;8.07;;;4.80;;
42478;SDS011;28110;47.080;9.476;2023-02-28T03:09:05;9.37;;;5.67;;
42478;SDS011;28110;47.080;9.476;2023-02-28T03:11:31;8.57;;;5.00;;
42478;SDS011;28110;47.080;9.476;2023-02-28T03:14:15;8.88;;;5.40;;
42478;SDS011;28110;47.080;9.476;2023-02-28T03:22:33;8.77;;;5.60;;
42478;SDS011;28110;47.080;9.476;2023-02-28T03:25:09;8.73;;;4.97;;
42478;SDS011;28110;47.080;9.476;2023-02-28T03:28:10;11.40;;;6.05;;
42478;SDS011;28110;47.080;9.476;2023-02-28T03:30:54;9.25;;;5.70;;
42478;SDS011;28110;47.080;9.476;2023-02-28T03:33:43;9.82;;;5.43;;
42478;SDS011;28110;47.080;9.476;2023-02-28T03:36:20;11.73;;;5.60;;
42478;SDS011;28110;47.080;9.476;2023-02-28T03:38:57;12.37;;;6.40;;
42478;SDS011;28110;47.080;9.476;2023-02-28T03:42:14;11.13;;;6.07;;
42478;SDS011;28110;47.080;9.476;2023-02-28T03:44:18;11.18;;;6.32;;
42478;SDS011;28110;47.080;9.476;2023-02-28T03:46:56;11.27;;;6.40;;
42478;SDS011;28110;47.080;9.476;2023-02-28T03:49:27;10.55;;;5.72;;
42478;SDS011;28110;47.080;9.476;2023-02-28T03:52:06;10.07;;;6.37;;
42478;SDS011;28110;47.080;9.476;2023-02-28T03:54:33;9.40;;;5.95;;
42478;SDS011;28110;47.080;9.476;2023-02-28T03:57:06;10.43;;;6.13;;
42478;SDS011;28110;47.080;9.476;2023-02-28T03:59:42;11.77;;;6.40;;
42478;SDS011;28110;47.080;9.476;2023-02-28T04:02:11;9.68;;;6.57;;
42478;SDS011;28110;47.080;9.476;2023-02-28T04:04:36;11.50;;;7.03;;
42478;SDS011;28110;47.080;9.476;2023-02-28T04:07:08;9.73;;;5.87;;
42478;SDS011;28110;47.080;9.476;2023-02-28T04:09:36;13.55;;;6.30;;
42478;SDS011;28110;47.080;9.476;2023-02-28T04:12:02;10.73;;;5.85;;
42478;SDS011;28110;47.080;9.476;2023-02-28T04:14:28;12.83;;;6.00;;
42478;SDS011;28110;47.080;9.476;2023-02-28T04:16:53;10.15;;;6.10;;
42478;SDS011;28110;47.080;9.476;2023-02-28T04:19:19;8.90;;;5.88;;
42478;SDS011;28110;47.080;9.476;2023-02-28T04:21:45;10.10;;;6.70;;
42478;SDS011;28110;47.080;9.476;2023-02-28T04:24:16;9.20;;;6.00;;
42478;SDS011;28110;47.080;9.476;2023-02-28T04:26:45;11.02;;;6.60;;
42478;SDS011;28110;47.080;9.476;2023-02-28T04:29:13;10.88;;;5.85;;
42478;SDS011;28110;47.080;9.476;2023-02-28T04:31:43;11.30;;;6.77;;
42478;SDS011;28110;47.080;9.476;2023-02-28T04:34:09;10.73;;;6.97;;
42478;SDS011;28110;47.080;9.476;2023-02-28T04:36:34;10.57;;;6.67;;
42478;SDS011;28110;47.080;9.476;2023-02-28T04:39:00;10.37;;;6.57;;
42478;SDS011;28110;47.080;9.476;2023-02-28T04:41:26;10.90;;;6.30;;
42478;SDS011;28110;47.080;9.476;2023-02-28T04:43:51;10.87;;;6.73;;
42478;SDS011;28110;47.080;9.476;2023-02-28T04:46:17;10.50;;;6.53;;
42478;SDS011;28110;47.080;9.476;2023-02-28T04:48:43;9.95;;;6.53;;
42478;SDS011;28110;47.080;9.476;2023-02-28T04:51:11;9.90;;;6.05;;
42478;SDS011;28110;47.080;9.476;2023-02-28T04:53:38;11.90;;;6.63;;
42478;SDS011;28110;47.080;9.476;2023-02-28T04:56:06;11.80;;;6.45;;
42478;SDS011;28110;47.080;9.476;2023-02-28T04:58:33;9.82;;;6.40;;
42478;SDS011;28110;47.080;9.476;2023-02-28T05:01:02;14.48;;;7.22;;
42478;SDS011;28110;47.080;9.476;2023-02-28T05:03:38;9.75;;;6.10;;
42478;SDS011;28110;47.080;9.476;2023-02-28T05:06:05;12.80;;;6.30;;
42478;SDS011;28110;47.080;9.476;2023-02-28T05:08:32;10.57;;;6.68;;
42478;SDS011;28110;47.080;9.476;2023-02-28T05:10:58;11.98;;;6.57;;
42478;SDS011;28110;47.080;9.476;2023-02-28T05:13:25;13.15;;;7.10;;
42478;SDS011;28110;47.080;9.476;2023-02-28T05:15:51;11.30;;;6.13;;
42478;SDS011;28110;47.080;9.476;2023-02-28T05:18:17;11.38;;;6.95;;
42478;SDS011;28110;47.080;9.476;2023-02-28T05:20:42;10.27;;;6.17;;
42478;SDS011;28110;47.080;9.476;2023-02-28T05:23:08;12.88;;;7.25;;
42478;SDS011;28110;47.080;9.476;2023-02-28T05:25:37;11.37;;;6.60;;
42478;SDS011;28110;47.080;9.476;2023-02-28T05:28:03;10.80;;;6.80;;
42478;SDS011;28110;47.080;9.476;2023-02-28T05:30:29;12.00;;;6.90;;
42478;SDS011;28110;47.080;9.476;2023-02-28T05:32:56;12.43;;;6.40;;
42478;SDS011;28110;47.080;9.476;2023-02-28T05:35:22;8.05;;;5.50;;
42478;SDS011;28110;47.080;9.476;2023-02-28T05:37:48;11.65;;;6.57;;
42478;SDS011;28110;47.080;9.476;2023-02-28T05:40:14;12.20;;;6.73;;
42478;SDS011;28110;47.080;9.476;2023-02-28T05:42:40;11.13;;;6.47;;
42478;SDS011;28110;47.080;9.476;2023-02-28T05:45:07;11.43;;;6.80;;
42478;SDS011;28110;47.080;9.476;2023-02-28T05:47:33;10.75;;;6.28;;
42478;SDS011;28110;47.080;9.476;2023-02-28T05:49:59;11.30;;;6.30;;
42478;SDS011;28110;47.080;9.476;2023-02-28T05:52:25;12.32;;;6.80;;
42478;SDS011;28110;47.080;9.476;2023-02-28T05:54:50;12.18;;;6.80;;
42478;SDS011;28110;47.080;9.476;2023-02-28T05:57:16;12.17;;;6.70;;
42478;SDS011;28110;47.080;9.476;2023-02-28T05:59:42;10.03;;;6.33;;
42478;SDS011;28110;47.080;9.476;2023-02-28T06:02:10;12.30;;;7.25;;
42478;SDS011;28110;47.080;9.476;2023-02-28T06:04:37;11.43;;;6.43;;
42478;SDS011;28110;47.080;9.476;2023-02-28T06:07:03;9.77;;;6.03;;
42478;SDS011;28110;47.080;9.476;2023-02-28T06:09:28;11.23;;;6.30;;
42478;SDS011;28110;47.080;9.476;2023-02-28T06:11:54;10.30;;;6.10;;
42478;SDS011;28110;47.080;9.476;2023-02-28T06:14:22;10.55;;;6.70;;
42478;SDS011;28110;47.080;9.476;2023-02-28T06:16:47;12.00;;;6.90;;
42478;SDS011;28110;47.080;9.476;2023-02-28T06:19:13;11.43;;;6.30;;
42478;SDS011;28110;47.080;9.476;2023-02-28T06:21:40;11.30;;;6.90;;
42478;SDS011;28110;47.080;9.476;2023-02-28T06:24:06;11.60;;;6.47;;
42478;SDS011;28110;47.080;9.476;2023-02-28T06:26:32;13.60;;;7.15;;
42478;SDS011;28110;47.080;9.476;2023-02-28T06:28:58;12.83;;;6.50;;
42478;SDS011;28110;47.080;9.476;2023-02-28T06:31:23;11.90;;;6.97;;
42478;SDS011;28110;47.080;9.476;2023-02-28T06:33:50;10.85;;;6.72;;
42478;SDS011;28110;47.080;9.476;2023-02-28T06:36:16;10.70;;;6.30;;
42478;SDS011;28110;47.080;9.476;2023-02-28T06:38:42;11.00;;;7.30;;
42478;SDS011;28110;47.080;9.476;2023-02-28T06:41:08;12.20;;;7.22;;
42478;SDS011;28110;47.080;9.476;2023-02-28T06:43:36;14.98;;;6.88;;
42478;SDS011;28110;47.080;9.476;2023-02-28T06:46:05;11.50;;;7.30;;
42478;SDS011;28110;47.080;9.476;2023-02-28T06:48:32;14.27;;;7.67;;
42478;SDS011;28110;47.080;9.476;2023-02-28T06:51:01;11.05;;;6.70;;
42478;SDS011;28110;47.080;9.476;2023-02-28T06:53:28;15.68;;;7.20;;
42478;SDS011;28110;47.080;9.476;2023-02-28T06:55:53;13.83;;;7.07;;
42478;SDS011;28110;47.080;9.476;2023-02-28T06:58:19;10.13;;;6.50;;
42478;SDS011;28110;47.080;9.476;2023-02-28T07:00:45;13.05;;;7.20;;
42478;SDS011;28110;47.080;9.476;2023-02-28T07:03:11;13.53;;;7.07;;
42478;SDS011;28110;47.080;9.476;2023-02-28T07:05:40;13.32;;;7.38;;
42478;SDS011;28110;47.080;9.476;2023-02-28T07:08:06;13.13;;;7.25;;
42478;SDS011;28110;47.080;9.476;2023-02-28T07:10:36;12.63;;;6.50;;
42478;SDS011;28110;47.080;9.476;2023-02-28T07:13:03;11.57;;;7.07;;
42478;SDS011;28110;47.080;9.476;2023-02-28T07:15:29;11.88;;;6.63;;
42478;SDS011;28110;47.080;9.476;2023-02-28T07:17:55;14.73;;;6.90;;
42478;SDS011;28110;47.080;9.476;2023-02-28T07:20:21;12.95;;;6.95;;
42478;SDS011;28110;47.080;9.476;2023-02-28T07:22:47;10.90;;;6.53;;
42478;SDS011;28110;47.080;9.476;2023-02-28T07:25:20;10.07;;;6.25;;
42478;SDS011;28110;47.080;9.476;2023-02-28T07:27:46;10.93;;;6.07;;
42478;SDS011;28110;47.080;9.476;2023-02-28T07:30:12;10.13;;;6.55;;
42478;SDS011;28110;47.080;9.476;2023-02-28T07:32:38;12.32;;;6.85;;
42478;SDS011;28110;47.080;9.476;2023-02-28T07:35:04;10.80;;;6.57;;
42478;SDS011;28110;47.080;9.476;2023-02-28T07:37:30;14.05;;;7.40;;
42478;SDS011;28110;47.080;9.476;2023-02-28T07:39:56;11.52;;;6.57;;
42478;SDS011;28110;47.080;9.476;2023-02-28T07:42:22;10.70;;;6.13;;
42478;SDS011;28110;47.080;9.476;2023-02-28T07:44:47;11.63;;;6.87;;
42478;SDS011;28110;47.080;9.476;2023-02-28T07:47:13;11.55;;;6.70;;
42478;SDS011;28110;47.080;9.476;2023-02-28T07:49:38;10.07;;;6.43;;
42478;SDS011;28110;47.080;9.476;2023-02-28T07:52:05;11.10;;;7.10;;
42478;SDS011;28110;47.080;9.476;2023-02-28T07:54:31;12.48;;;6.82;;
42478;SDS011;28110;47.080;9.476;2023-02-28T07:56:58;11.32;;;7.25;;
42478;SDS011;28110;47.080;9.476;2023-02-28T07:59:24;12.65;;;6.90;;
42478;SDS011;28110;47.080;9.476;2023-02-28T08:01:49;12.33;;;6.87;;
42478;SDS011;28110;47.080;9.476;2023-02-28T08:04:16;12.75;;;7.80;;
42478;SDS011;28110;47.080;9.476;2023-02-28T08:06:42;11.93;;;6.70;;
42478;SDS011;28110;47.080;9.476;2023-02-28T08:09:08;9.27;;;6.20;;
42478;SDS011;28110;47.080;9.476;2023-02-28T08:11:33;14.13;;;6.63;;
42478;SDS011;28110;47.080;9.476;2023-02-28T08:13:59;12.25;;;6.90;;
42478;SDS011;28110;47.080;9.476;2023-02-28T08:16:24;13.40;;;6.73;;
42478;SDS011;28110;47.080;9.476;2023-02-28T08:18:51;12.73;;;7.20;;
42478;SDS011;28110;47.080;9.476;2023-02-28T08:21:18;14.77;;;7.13;;
42478;SDS011;28110;47.080;9.476;2023-02-28T08:23:46;13.05;;;6.82;;
42478;SDS011;28110;47.080;9.476;2023-02-28T08:26:13;11.30;;;6.88;;
42478;SDS011;28110;47.080;9.476;2023-02-28T08:28:40;11.50;;;7.37;;
42478;SDS011;28110;47.080;9.476;2023-02-28T08:31:09;12.98;;;7.38;;
42478;SDS011;28110;47.080;9.476;2023-02-28T08:33:36;11.93;;;7.65;;
42478;SDS011;28110;47.080;9.476;2023-02-28T08:36:03;13.40;;;7.17;;
42478;SDS011;28110;47.080;9.476;2023-02-28T08:38:30;10.43;;;6.82;;
42478;SDS011;28110;47.080;9.476;2023-02-28T08:41:03;13.05;;;7.32;;
42478;SDS011;28110;47.080;9.476;2023-02-28T08:43:32;12.98;;;7.03;;
42478;SDS011;28110;47.080;9.476;2023-02-28T08:45:58;13.27;;;7.70;;
42478;SDS011;28110;47.080;9.476;2023-02-28T08:48:24;11.60;;;7.50;;
42478;SDS011;28110;47.080;9.476;2023-02-28T08:50:55;13.23;;;7.20;;
42478;SDS011;28110;47.080;9.476;2023-02-28T08:53:22;14.63;;;6.97;;
42478;SDS011;28110;47.080;9.476;2023-02-28T08:55:50;10.05;;;6.80;;
42478;SDS011;28110;47.080;9.476;2023-02-28T08:58:27;16.83;;;8.20;;
42478;SDS011;28110;47.080;9.476;2023-02-28T09:00:53;12.40;;;7.33;;
42478;SDS011;28110;47.080;9.476;2023-02-28T09:03:20;13.60;;;7.93;;
42478;SDS011;28110;47.080;9.476;2023-02-28T09:05:56;14.35;;;8.00;;
42478;SDS011;28110;47.080;9.476;2023-02-28T09:08:23;16.58;;;8.07;;
42478;SDS011;28110;47.080;9.476;2023-02-28T09:10:50;14.75;;;7.53;;
42478;SDS011;28110;47.080;9.476;2023-02-28T09:13:17;11.50;;;7.60;;
42478;SDS011;28110;47.080;9.476;2023-02-28T09:15:43;13.70;;;7.70;;
42478;SDS011;28110;47.080;9.476;2023-02-28T09:18:09;14.80;;;7.85;;
42478;SDS011;28110;47.080;9.476;2023-02-28T09:20:37;16.02;;;8.00;;
42478;SDS011;28110;47.080;9.476;2023-02-28T09:23:04;13.52;;;7.75;;
42478;SDS011;28110;47.080;9.476;2023-02-28T09:25:30;13.00;;;7.87;;
42478;SDS011;28110;47.080;9.476;2023-02-28T09:27:55;17.95;;;8.32;;
42478;SDS011;28110;47.080;9.476;2023-02-28T09:30:21;16.70;;;8.23;;
42478;SDS011;28110;47.080;9.476;2023-02-28T09:32:47;12.73;;;7.83;;
42478;SDS011;28110;47.080;9.476;2023-02-28T09:35:17;14.50;;;8.43;;
42478;SDS011;28110;47.080;9.476;2023-02-28T09:37:43;13.95;;;7.57;;
42478;SDS011;28110;47.080;9.476;2023-02-28T09:40:09;14.63;;;8.27;;
42478;SDS011;28110;47.080;9.476;2023-02-28T09:42:36;12.43;;;7.65;;
42478;SDS011;28110;47.080;9.476;2023-02-28T09:45:02;18.02;;;9.35;;
42478;SDS011;28110;47.080;9.476;2023-02-28T09:47:45;13.97;;;8.13;;
42478;SDS011;28110;47.080;9.476;2023-02-28T09:50:28;14.60;;;9.00;;
42478;SDS011;28110;47.080;9.476;2023-02-28T09:53:01;16.38;;;8.70;;
42478;SDS011;28110;47.080;9.476;2023-02-28T09:55:34;15.70;;;8.32;;
42478;SDS011;28110;47.080;9.476;2023-02-28T09:58:10;12.02;;;8.15;;
42478;SDS011;28110;47.080;9.476;2023-02-28T10:04:05;13.02;;;7.63;;
42478;SDS011;28110;47.080;9.476;2023-02-28T10:06:54;14.52;;;8.68;;
42478;SDS011;28110;47.080;9.476;2023-02-28T10:09:24;13.67;;;7.87;;
42478;SDS011;28110;47.080;9.476;2023-02-28T10:11:53;14.85;;;7.40;;
42478;SDS011;28110;47.080;9.476;2023-02-28T10:14:26;15.00;;;8.13;;
42478;SDS011;28110;47.080;9.476;2023-02-28T10:17:16;13.88;;;8.23;;
42478;SDS011;28110;47.080;9.476;2023-02-28T10:22:19;15.88;;;8.38;;
42478;SDS011;28110;47.080;9.476;2023-02-28T10:24:52;12.73;;;8.15;;
42478;SDS011;28110;47.080;9.476;2023-02-28T10:27:25;13.18;;;8.13;;
42478;SDS011;28110;47.080;9.476;2023-02-28T10:29:55;17.60;;;8.73;;
42478;SDS011;28110;47.080;9.476;2023-02-28T10:32:23;13.37;;;8.07;;
42478;SDS011;28110;47.080;9.476;2023-02-28T10:37:37;14.73;;;8.40;;
42478;SDS011;28110;47.080;9.476;2023-02-28T10:40:04;15.50;;;8.80;;
42478;SDS011;28110;47.080;9.476;2023-02-28T10:42:30;14.23;;;8.85;;
42478;SDS011;28110;47.080;9.476;2023-02-28T10:47:48;16.25;;;8.52;;
42478;SDS011;28110;47.080;9.476;2023-02-28T10:51:00;13.50;;;8.60;;
42478;SDS011;28110;47.080;9.476;2023-02-28T10:55:56;15.57;;;8.57;;
42478;SDS011;28110;47.080;9.476;2023-02-28T10:58:26;15.50;;;9.30;;
42478;SDS011;28110;47.080;9.476;2023-02-28T11:00:53;17.67;;;8.40;;
42478;SDS011;28110;47.080;9.476;2023-02-28T11:03:23;13.02;;;8.77;;
42478;SDS011;28110;47.080;9.476;2023-02-28T11:05:55;11.90;;;7.63;;
42478;SDS011;28110;47.080;9.476;2023-02-28T11:08:21;14.38;;;8.20;;
42478;SDS011;28110;47.080;9.476;2023-02-28T11:10:48;14.00;;;8.00;;
42478;SDS011;28110;47.080;9.476;2023-02-28T11:13:20;16.85;;;8.80;;
42478;SDS011;28110;47.080;9.476;2023-02-28T11:15:56;16.83;;;8.73;;
42478;SDS011;28110;47.080;9.476;2023-02-28T11:18:43;18.03;;;9.30;;
42478;SDS011;28110;47.080;9.476;2023-02-28T11:21:18;14.23;;;7.85;;
42478;SDS011;28110;47.080;9.476;2023-02-28T11:23:54;14.65;;;8.02;;
42478;SDS011;28110;47.080;9.476;2023-02-28T11:26:47;13.15;;;8.80;;
42478;SDS011;28110;47.080;9.476;2023-02-28T11:32:03;13.60;;;8.23;;
42478;SDS011;28110;47.080;9.476;2023-02-28T11:34:38;14.63;;;8.73;;
42478;SDS011;28110;47.080;9.476;2023-02-28T11:37:08;14.85;;;8.70;;
42478;SDS011;28110;47.080;9.476;2023-02-28T11:39:39;14.50;;;8.55;;
42478;SDS011;28110;47.080;9.476;2023-02-28T11:53:36;15.02;;;8.27;;
42478;SDS011;28110;47.080;9.476;2023-02-28T12:02:14;18.92;;;8.93;;
42478;SDS011;28110;47.080;9.476;2023-02-28T12:10:21;17.88;;;9.32;;
42478;SDS011;28110;47.080;9.476;2023-02-28T12:13:08;14.30;;;7.53;;
42478;SDS011;28110;47.080;9.476;2023-02-28T12:16:00;15.50;;;8.32;;
42478;SDS011;28110;47.080;9.476;2023-02-28T12:18:40;16.92;;;8.70;;
42478;SDS011;28110;47.080;9.476;2023-02-28T12:21:37;14.32;;;8.18;;
42478;SDS011;28110;47.080;9.476;2023-02-28T12:26:58;13.90;;;8.17;;
42478;SDS011;28110;47.080;9.476;2023-02-28T12:29:32;19.65;;;9.85;;
42478;SDS011;28110;47.080;9.476;2023-02-28T12:32:06;11.73;;;7.93;;
42478;SDS011;28110;47.080;9.476;2023-02-28T12:34:38;16.88;;;8.20;;
42478;SDS011;28110;47.080;9.476;2023-02-28T12:37:10;13.77;;;8.45;;
42478;SDS011;28110;47.080;9.476;2023-02-28T12:40:00;15.60;;;9.10;;
42478;SDS011;28110;47.080;9.476;2023-02-28T12:42:32;13.73;;;8.27;;
42478;SDS011;28110;47.080;9.476;2023-02-28T12:45:09;13.27;;;8.25;;
42478;SDS011;28110;47.080;9.476;2023-02-28T12:47:38;12.70;;;8.02;;
42478;SDS011;28110;47.080;9.476;2023-02-28T12:50:08;17.02;;;8.50;;
42478;SDS011;28110;47.080;9.476;2023-02-28T12:55:29;15.65;;;8.43;;
42478;SDS011;28110;47.080;9.476;2023-02-28T12:58:09;13.05;;;7.97;;
42478;SDS011;28110;47.080;9.476;2023-02-28T13:09:09;14.88;;;9.35;;
42478;SDS011;28110;47.080;9.476;2023-02-28T13:11:40;16.10;;;8.80;;
42478;SDS011;28110;47.080;9.476;2023-02-28T13:14:24;14.88;;;8.98;;
42478;SDS011;28110;47.080;9.476;2023-02-28T13:16:58;14.57;;;8.57;;
42478;SDS011;28110;47.080;9.476;2023-02-28T13:19:31;14.67;;;8.90;;
42478;SDS011;28110;47.080;9.476;2023-02-28T13:21:59;15.52;;;8.82;;
42478;SDS011;28110;47.080;9.476;2023-02-28T13:38:48;15.65;;;9.05;;
42478;SDS011;28110;47.080;9.476;2023-02-28T13:43:59;15.93;;;8.52;;
42478;SDS011;28110;47.080;9.476;2023-02-28T13:46:26;15.40;;;8.80;;
42478;SDS011;28110;47.080;9.476;2023-02-28T13:48:52;16.05;;;9.00;;
42478;SDS011;28110;47.080;9.476;2023-02-28T13:51:39;16.33;;;9.27;;
42478;SDS011;28110;47.080;9.476;2023-02-28T14:02:17;19.63;;;9.65;;
42478;SDS011;28110;47.080;9.476;2023-02-28T14:05:01;16.80;;;9.40;;
42478;SDS011;28110;47.080;9.476;2023-02-28T14:07:40;13.35;;;7.72;;
42478;SDS011;28110;47.080;9.476;2023-02-28T14:10:23;13.43;;;7.75;;
42478;SDS011;28110;47.080;9.476;2023-02-28T14:13:01;16.83;;;9.80;;
42478;SDS011;28110;47.080;9.476;2023-02-28T14:20:53;14.15;;;8.65;;
42478;SDS011;28110;47.080;9.476;2023-02-28T14:29:11;17.77;;;9.65;;
42478;SDS011;28110;47.080;9.476;2023-02-28T14:32:00;16.90;;;9.37;;
42478;SDS011;28110;47.080;9.476;2023-02-28T14:37:13;19.02;;;9.40;;
42478;SDS011;28110;47.080;9.476;2023-02-28T14:39:44;16.63;;;8.98;;
42478;SDS011;28110;47.080;9.476;2023-02-28T14:42:25;14.77;;;8.68;;
42478;SDS011;28110;47.080;9.476;2023-02-28T14:44:55;15.20;;;9.20;;
42478;SDS011;28110;47.080;9.476;2023-02-28T14:47:21;16.30;;;9.35;;
42478;SDS011;28110;47.080;9.476;2023-02-28T14:49:52;15.07;;;8.98;;
42478;SDS011;28110;47.080;9.476;2023-02-28T14:52:21;16.80;;;9.43;;
42478;SDS011;28110;47.080;9.476;2023-02-28T14:54:52;15.82;;;8.93;;
42478;SDS011;28110;47.080;9.476;2023-02-28T14:57:33;15.88;;;8.35;;
42478;SDS011;28110;47.080;9.476;2023-02-28T15:02:47;16.88;;;8.93;;
42478;SDS011;28110;47.080;9.476;2023-02-28T15:07:38;11.97;;;7.57;;
42478;SDS011;28110;47.080;9.476;2023-02-28T15:10:08;13.63;;;9.00;;
42478;SDS011;28110;47.080;9.476;2023-02-28T15:15:21;15.93;;;9.30;;
42478;SDS011;28110;47.080;9.476;2023-02-28T15:17:50;18.65;;;8.98;;
42478;SDS011;28110;47.080;9.476;2023-02-28T15:20:21;17.23;;;9.50;;
42478;SDS011;28110;47.080;9.476;2023-02-28T15:22:47;14.77;;;8.60;;
42478;SDS011;28110;47.080;9.476;2023-02-28T15:25:17;15.30;;;9.27;;
42478;SDS011;28110;47.080;9.476;2023-02-28T15:27:46;13.90;;;7.90;;
42478;SDS011;28110;47.080;9.476;2023-02-28T15:30:38;12.88;;;7.97;;
42478;SDS011;28110;47.080;9.476;2023-02-28T15:35:36;13.23;;;7.63;;
42478;SDS011;28110;47.080;9.476;2023-02-28T15:38:03;16.98;;;9.05;;
42478;SDS011;28110;47.080;9.476;2023-02-28T15:40:37;15.00;;;8.87;;
42478;SDS011;28110;47.080;9.476;2023-02-28T15:45:49;16.83;;;10.30;;
42478;SDS011;28110;47.080;9.476;2023-02-28T15:48:24;19.23;;;9.45;;
42478;SDS011;28110;47.080;9.476;2023-02-28T15:53:36;17.37;;;9.07;;
42478;SDS011;28110;47.080;9.476;2023-02-28T15:58:49;16.00;;;8.15;;
42478;SDS011;28110;47.080;9.476;2023-02-28T16:01:21;17.35;;;9.85;;
42478;SDS011;28110;47.080;9.476;2023-02-28T16:03:59;16.27;;;9.80;;
42478;SDS011;28110;47.080;9.476;2023-02-28T16:09:03;16.75;;;9.55;;
42478;SDS011;28110;47.080;9.476;2023-02-28T16:11:32;17.08;;;10.15;;
42478;SDS011;28110;47.080;9.476;2023-02-28T16:14:00;17.58;;;9.98;;
42478;SDS011;28110;47.080;9.476;2023-02-28T16:16:25;16.30;;;9.63;;
42478;SDS011;28110;47.080;9.476;2023-02-28T16:18:51;13.77;;;8.75;;
42478;SDS011;28110;47.080;9.476;2023-02-28T16:21:17;17.75;;;9.48;;
42478;SDS011;28110;47.080;9.476;2023-02-28T16:23:43;16.07;;;8.40;;
42478;SDS011;28110;47.080;9.476;2023-02-28T16:26:10;16.70;;;9.00;;
42478;SDS011;28110;47.080;9.476;2023-02-28T16:28:44;15.55;;;9.30;;
42478;SDS011;28110;47.080;9.476;2023-02-28T16:31:10;16.10;;;9.88;;
42478;SDS011;28110;47.080;9.476;2023-02-28T16:33:41;15.67;;;9.23;;
42478;SDS011;28110;47.080;9.476;2023-02-28T16:36:19;15.70;;;8.82;;
42478;SDS011;28110;47.080;9.476;2023-02-28T16:38:46;16.67;;;9.63;;
42478;SDS011;28110;47.080;9.476;2023-02-28T16:41:13;13.87;;;8.27;;
42478;SDS011;28110;47.080;9.476;2023-02-28T16:43:44;15.15;;;8.70;;
42478;SDS011;28110;47.080;9.476;2023-02-28T16:46:12;14.75;;;8.77;;
42478;SDS011;28110;47.080;9.476;2023-02-28T16:48:38;16.25;;;9.13;;
42478;SDS011;28110;47.080;9.476;2023-02-28T16:51:05;21.30;;;9.53;;
42478;SDS011;28110;47.080;9.476;2023-02-28T16:53:35;15.30;;;8.88;;
42478;SDS011;28110;47.080;9.476;2023-02-28T16:56:01;17.10;;;9.13;;
42478;SDS011;28110;47.080;9.476;2023-02-28T16:58:27;18.10;;;9.38;;
42478;SDS011;28110;47.080;9.476;2023-02-28T17:00:52;14.95;;;8.73;;
42478;SDS011;28110;47.080;9.476;2023-02-28T17:03:22;16.97;;;9.30;;
42478;SDS011;28110;47.080;9.476;2023-02-28T17:05:49;17.02;;;9.00;;
42478;SDS011;28110;47.080;9.476;2023-02-28T17:08:15;18.20;;;9.90;;
42478;SDS011;28110;47.080;9.476;2023-02-28T17:10:41;16.00;;;9.23;;
42478;SDS011;28110;47.080;9.476;2023-02-28T17:13:07;18.07;;;10.13;;
42478;SDS011;28110;47.080;9.476;2023-02-28T17:15:33;17.40;;;10.15;;
42478;SDS011;28110;47.080;9.476;2023-02-28T17:17:59;14.65;;;8.80;;